sensor_id;sensor_type;location;lat;lon;timestamp;pressure;altitude;pressure_sealevel;temperature;humidity
21273;BME280;36726;52.328;10.552;2022-09-24T00:01:26;100366.38;;;14.03;84.88
21273;BME280;36726;52.328;10.552;2022-09-24T00:03:55;100366.41;;;13.99;83.44
21273;BME280;36726;52.328;10.552;2022-09-24T00:06:22;100361.97;;;13.95;84.04
21273;BME280;36726;52.328;10.552;2022-09-24T00:08:52;100356.66;;;13.90;84.89
21273;BME280;36726;52.328;10.552;2022-09-24T00:11:22;100358.47;;;13.90;85.64
21273;BME280;36726;52.328;10.552;2022-09-24T00:13:50;100355.81;;;13.88;85.98
21273;BME280;36726;52.328;10.552;2022-09-24T00:16:19;100354.91;;;13.88;86.35
21273;BME280;36726;52.328;10.552;2022-09-24T00:18:46;100350.47;;;13.87;85.92
21273;BME280;36726;52.328;10.552;2022-09-24T00:21:19;100347.81;;;13.85;85.60
21273;BME280;36726;52.328;10.552;2022-09-24T00:23:54;100350.47;;;13.85;85.64
21273;BME280;36726;52.328;10.552;2022-09-24T00:26:21;100347.84;;;13.84;85.79
21273;BME280;36726;52.328;10.552;2022-09-24T00:29:08;100357.59;;;13.82;85.82
21273;BME280;36726;52.328;10.552;2022-09-24T00:31:35;100355.81;;;13.78;85.70
21273;BME280;36726;52.328;10.552;2022-09-24T00:34:02;100353.16;;;13.78;86.08
21273;BME280;36726;52.328;10.552;2022-09-24T00:36:29;100349.63;;;13.76;86.59
21273;BME280;36726;52.328;10.552;2022-09-24T00:38:58;100351.41;;;13.77;86.98
21273;BME280;36726;52.328;10.552;2022-09-24T00:41:28;100346.97;;;13.79;87.44
21273;BME280;36726;52.328;10.552;2022-09-24T00:43:56;100342.53;;;13.81;87.53
21273;BME280;36726;52.328;10.552;2022-09-24T00:46:38;100342.53;;;13.84;88.34
21273;BME280;36726;52.328;10.552;2022-09-24T00:49:10;100334.53;;;13.85;88.51
21273;BME280;36726;52.328;10.552;2022-09-24T00:51:39;100334.53;;;13.85;88.64
21273;BME280;36726;52.328;10.552;2022-09-24T00:54:08;100331.88;;;13.87;88.20
21273;BME280;36726;52.328;10.552;2022-09-24T00:56:38;100337.19;;;13.87;88.39
21273;BME280;36726;52.328;10.552;2022-09-24T00:59:08;100338.06;;;13.87;87.89
21273;BME280;36726;52.328;10.552;2022-09-24T01:01:36;100342.50;;;13.87;88.13
21273;BME280;36726;52.328;10.552;2022-09-24T01:04:04;100339.84;;;13.85;88.17
21273;BME280;36726;52.328;10.552;2022-09-24T01:06:32;100342.53;;;13.84;88.00
21273;BME280;36726;52.328;10.552;2022-09-24T01:08:59;100333.66;;;13.82;88.59
21273;BME280;36726;52.328;10.552;2022-09-24T01:11:40;100338.97;;;13.82;88.77
21273;BME280;36726;52.328;10.552;2022-09-24T01:22:49;100341.66;;;13.80;88.49
21273;BME280;36726;52.328;10.552;2022-09-24T01:25:31;100345.22;;;13.79;88.10
21273;BME280;36726;52.328;10.552;2022-09-24T01:28:21;100340.78;;;13.78;88.06
21273;BME280;36726;52.328;10.552;2022-09-24T01:30:58;100336.34;;;13.77;87.42
21273;BME280;36726;52.328;10.552;2022-09-24T01:33:27;100337.25;;;13.75;87.21
21273;BME280;36726;52.328;10.552;2022-09-24T01:35:59;100329.28;;;13.72;87.02
21273;BME280;36726;52.328;10.552;2022-09-24T01:38:34;100330.16;;;13.69;87.42
21273;BME280;36726;52.328;10.552;2022-09-24T01:41:05;100325.75;;;13.68;88.04
21273;BME280;36726;52.328;10.552;2022-09-24T01:43:33;100328.38;;;13.67;88.19
21273;BME280;36726;52.328;10.552;2022-09-24T01:46:02;100329.31;;;13.64;87.62
21273;BME280;36726;52.328;10.552;2022-09-24T01:48:35;100328.41;;;13.65;87.42
21273;BME280;36726;52.328;10.552;2022-09-24T01:51:22;100326.66;;;13.64;86.91
21273;BME280;36726;52.328;10.552;2022-09-24T01:54:02;100323.09;;;13.64;86.63
21273;BME280;36726;52.328;10.552;2022-09-24T01:56:38;100321.31;;;13.66;86.73
21273;BME280;36726;52.328;10.552;2022-09-24T01:59:15;100320.41;;;13.67;86.94
21273;BME280;36726;52.328;10.552;2022-09-24T02:01:54;100307.13;;;13.67;86.61
21273;BME280;36726;52.328;10.552;2022-09-24T02:04:24;100312.44;;;13.67;87.16
21273;BME280;36726;52.328;10.552;2022-09-24T02:07:00;100307.13;;;13.67;87.12
21273;BME280;36726;52.328;10.552;2022-09-24T02:09:32;100313.34;;;13.67;87.13
21273;BME280;36726;52.328;10.552;2022-09-24T02:12:06;100308.00;;;13.69;87.31
21273;BME280;36726;52.328;10.552;2022-09-24T02:14:38;100309.78;;;13.67;87.10
21273;BME280;36726;52.328;10.552;2022-09-24T02:17:08;100314.22;;;13.68;86.42
21273;BME280;36726;52.328;10.552;2022-09-24T02:19:37;100313.34;;;13.67;86.19
21273;BME280;36726;52.328;10.552;2022-09-24T02:22:06;100309.78;;;13.67;85.95
21273;BME280;36726;52.328;10.552;2022-09-24T02:24:43;100314.22;;;13.68;86.25
21273;BME280;36726;52.328;10.552;2022-09-24T02:27:11;100308.00;;;13.69;86.49
21273;BME280;36726;52.328;10.552;2022-09-24T02:29:37;100312.44;;;13.70;86.53
21273;BME280;36726;52.328;10.552;2022-09-24T02:32:07;100306.25;;;13.69;86.88
21273;BME280;36726;52.328;10.552;2022-09-24T02:34:41;100306.25;;;13.69;87.39
21273;BME280;36726;52.328;10.552;2022-09-24T02:37:11;100300.03;;;13.69;87.36
21273;BME280;36726;52.328;10.552;2022-09-24T02:39:40;100300.94;;;13.66;87.44
21273;BME280;36726;52.328;10.552;2022-09-24T02:42:08;100300.06;;;13.66;87.64
21273;BME280;36726;52.328;10.552;2022-09-24T02:44:36;100302.72;;;13.64;87.58
21273;BME280;36726;52.328;10.552;2022-09-24T02:47:03;100301.84;;;13.64;87.79
21273;BME280;36726;52.328;10.552;2022-09-24T02:49:30;100298.28;;;13.62;87.10
21273;BME280;36726;52.328;10.552;2022-09-24T02:51:56;100295.63;;;13.62;87.18
21273;BME280;36726;52.328;10.552;2022-09-24T02:54:23;100294.78;;;13.63;87.71
21273;BME280;36726;52.328;10.552;2022-09-24T02:56:50;100296.53;;;13.62;87.70
21273;BME280;36726;52.328;10.552;2022-09-24T02:59:17;100293.88;;;13.62;88.16
21273;BME280;36726;52.328;10.552;2022-09-24T03:01:45;100300.94;;;13.63;88.15
21273;BME280;36726;52.328;10.552;2022-09-24T03:04:13;100300.09;;;13.63;88.15
21273;BME280;36726;52.328;10.552;2022-09-24T03:06:41;100297.44;;;13.61;88.37
21273;BME280;36726;52.328;10.552;2022-09-24T03:09:10;100300.06;;;13.60;88.29
21273;BME280;36726;52.328;10.552;2022-09-24T03:11:38;100301.00;;;13.57;88.55
21273;BME280;36726;52.328;10.552;2022-09-24T03:14:05;100301.84;;;13.57;88.24
21273;BME280;36726;52.328;10.552;2022-09-24T03:16:32;100304.50;;;13.57;88.83
21273;BME280;36726;52.328;10.552;2022-09-24T03:18:59;100302.75;;;13.58;88.44
21273;BME280;36726;52.328;10.552;2022-09-24T03:21:25;100297.44;;;13.58;88.60
21273;BME280;36726;52.328;10.552;2022-09-24T03:23:52;100308.94;;;13.54;88.36
21273;BME280;36726;52.328;10.552;2022-09-24T03:26:18;100299.22;;;13.47;89.15
21273;BME280;36726;52.328;10.552;2022-09-24T03:28:45;100301.03;;;13.42;89.42
21273;BME280;36726;52.328;10.552;2022-09-24T03:31:12;100296.59;;;13.38;89.99
21273;BME280;36726;52.328;10.552;2022-09-24T03:33:42;100283.34;;;13.36;90.48
21273;BME280;36726;52.328;10.552;2022-09-24T03:36:13;100292.19;;;13.37;90.82
21273;BME280;36726;52.328;10.552;2022-09-24T03:38:42;100290.41;;;13.36;91.30
21273;BME280;36726;52.328;10.552;2022-09-24T03:41:10;100284.22;;;13.35;91.48
21273;BME280;36726;52.328;10.552;2022-09-24T03:43:37;100285.97;;;13.36;91.61
21273;BME280;36726;52.328;10.552;2022-09-24T03:46:05;100285.09;;;13.36;91.79
21273;BME280;36726;52.328;10.552;2022-09-24T03:48:34;100284.22;;;13.35;91.94
21273;BME280;36726;52.328;10.552;2022-09-24T03:51:03;100286.00;;;13.35;91.92
21273;BME280;36726;52.328;10.552;2022-09-24T03:53:31;100284.22;;;13.32;91.59
21273;BME280;36726;52.328;10.552;2022-09-24T03:55:58;100281.59;;;13.29;91.92
21273;BME280;36726;52.328;10.552;2022-09-24T03:58:25;100278.94;;;13.26;91.93
21273;BME280;36726;52.328;10.552;2022-09-24T04:00:52;100278.06;;;13.24;92.15
21273;BME280;36726;52.328;10.552;2022-09-24T04:03:20;100279.81;;;13.24;92.04
21273;BME280;36726;52.328;10.552;2022-09-24T04:05:47;100280.72;;;13.23;92.34
21273;BME280;36726;52.328;10.552;2022-09-24T04:08:20;100280.75;;;13.21;92.72
21273;BME280;36726;52.328;10.552;2022-09-24T04:10:48;100278.94;;;13.20;92.94
21273;BME280;36726;52.328;10.552;2022-09-24T04:13:17;100274.53;;;13.19;93.27
21273;BME280;36726;52.328;10.552;2022-09-24T04:15:44;100278.97;;;13.19;93.54
21273;BME280;36726;52.328;10.552;2022-09-24T04:18:10;100283.38;;;13.20;93.36
21273;BME280;36726;52.328;10.552;2022-09-24T04:20:37;100279.84;;;13.19;93.40
21273;BME280;36726;52.328;10.552;2022-09-24T04:23:04;100282.50;;;13.21;93.22
21273;BME280;36726;52.328;10.552;2022-09-24T04:25:31;100280.75;;;13.21;92.78
21273;BME280;36726;52.328;10.552;2022-09-24T04:28:04;100274.53;;;13.22;93.18
21273;BME280;36726;52.328;10.552;2022-09-24T04:30:32;100273.63;;;13.23;93.43
21273;BME280;36726;52.328;10.552;2022-09-24T04:32:59;100279.81;;;13.24;93.70
21273;BME280;36726;52.328;10.552;2022-09-24T04:35:28;100270.09;;;13.23;93.72
21273;BME280;36726;52.328;10.552;2022-09-24T04:37:55;100270.09;;;13.24;93.87
21273;BME280;36726;52.328;10.552;2022-09-24T04:40:22;100266.53;;;13.25;94.04
21273;BME280;36726;52.328;10.552;2022-09-24T04:42:49;100263.03;;;13.25;94.39
21273;BME280;36726;52.328;10.552;2022-09-24T04:45:16;100263.88;;;13.25;93.97
21273;BME280;36726;52.328;10.552;2022-09-24T04:47:50;100263.00;;;13.23;93.73
21273;BME280;36726;52.328;10.552;2022-09-24T04:50:24;100260.34;;;13.23;94.13
21273;BME280;36726;52.328;10.552;2022-09-24T04:52:52;100267.44;;;13.23;94.16
21273;BME280;36726;52.328;10.552;2022-09-24T04:55:19;100256.84;;;13.21;93.85
21273;BME280;36726;52.328;10.552;2022-09-24T04:57:46;100256.84;;;13.21;94.47
21273;BME280;36726;52.328;10.552;2022-09-24T05:00:14;100257.69;;;13.20;94.58
21273;BME280;36726;52.328;10.552;2022-09-24T05:02:43;100255.94;;;13.21;94.66
21273;BME280;36726;52.328;10.552;2022-09-24T05:05:11;100259.50;;;13.21;95.13
21273;BME280;36726;52.328;10.552;2022-09-24T05:07:38;100249.75;;;13.19;95.34
21273;BME280;36726;52.328;10.552;2022-09-24T05:10:05;100255.06;;;13.17;95.71
21273;BME280;36726;52.328;10.552;2022-09-24T05:12:32;100255.06;;;13.16;95.96
21273;BME280;36726;52.328;10.552;2022-09-24T05:15:02;100255.94;;;13.15;96.32
21273;BME280;36726;52.328;10.552;2022-09-24T05:17:29;100247.97;;;13.15;96.40
21273;BME280;36726;52.328;10.552;2022-09-24T05:19:56;100253.31;;;13.13;96.12
21273;BME280;36726;52.328;10.552;2022-09-24T05:22:26;100255.97;;;13.10;96.02
21273;BME280;36726;52.328;10.552;2022-09-24T05:24:53;100251.53;;;13.11;96.43
21273;BME280;36726;52.328;10.552;2022-09-24T05:27:20;100252.44;;;13.08;96.31
21273;BME280;36726;52.328;10.552;2022-09-24T05:29:48;100246.22;;;13.08;96.47
21273;BME280;36726;52.328;10.552;2022-09-24T05:32:18;100253.31;;;13.07;96.61
21273;BME280;36726;52.328;10.552;2022-09-24T05:34:45;100257.75;;;13.08;96.54
21273;BME280;36726;52.328;10.552;2022-09-24T05:37:13;100257.75;;;13.08;96.63
21273;BME280;36726;52.328;10.552;2022-09-24T05:39:40;100259.50;;;13.09;96.42
21273;BME280;36726;52.328;10.552;2022-09-24T05:42:11;100269.25;;;13.10;96.66
21273;BME280;36726;52.328;10.552;2022-09-24T05:44:41;100270.13;;;13.12;96.96
21273;BME280;36726;52.328;10.552;2022-09-24T05:47:11;100270.13;;;13.12;97.29
21273;BME280;36726;52.328;10.552;2022-09-24T05:49:38;100276.28;;;13.14;97.18
21273;BME280;36726;52.328;10.552;2022-09-24T05:52:05;100266.56;;;13.16;97.49
21273;BME280;36726;52.328;10.552;2022-09-24T05:54:31;100277.19;;;13.19;97.61
21273;BME280;36726;52.328;10.552;2022-09-24T05:56:58;100284.25;;;13.22;97.75
21273;BME280;36726;52.328;10.552;2022-09-24T05:59:25;100296.66;;;13.26;97.82
21273;BME280;36726;52.328;10.552;2022-09-24T06:01:51;100296.63;;;13.27;97.91
21273;BME280;36726;52.328;10.552;2022-09-24T06:04:18;100290.44;;;13.30;97.67
21273;BME280;36726;52.328;10.552;2022-09-24T06:06:44;100294.00;;;13.32;97.61
21273;BME280;36726;52.328;10.552;2022-09-24T06:09:11;100296.63;;;13.35;97.54
21273;BME280;36726;52.328;10.552;2022-09-24T06:11:38;100294.84;;;13.35;97.25
21273;BME280;36726;52.328;10.552;2022-09-24T06:14:06;100299.25;;;13.39;96.91
21273;BME280;36726;52.328;10.552;2022-09-24T06:16:34;100305.47;;;13.44;96.71
21273;BME280;36726;52.328;10.552;2022-09-24T06:19:01;100301.03;;;13.48;96.74
21273;BME280;36726;52.328;10.552;2022-09-24T06:21:28;100302.78;;;13.53;96.75
21273;BME280;36726;52.328;10.552;2022-09-24T06:23:54;100302.75;;;13.58;96.11
21273;BME280;36726;52.328;10.552;2022-09-24T06:26:21;100298.31;;;13.65;96.43
21273;BME280;36726;52.328;10.552;2022-09-24T06:28:48;100298.25;;;13.71;96.13
21273;BME280;36726;52.328;10.552;2022-09-24T06:31:14;100297.34;;;13.79;95.75
21273;BME280;36726;52.328;10.552;2022-09-24T06:33:41;100299.09;;;13.88;95.90
21273;BME280;36726;52.328;10.552;2022-09-24T06:36:07;100299.91;;;13.96;95.58
21273;BME280;36726;52.328;10.552;2022-09-24T06:38:34;100304.31;;;14.03;95.23
21273;BME280;36726;52.328;10.552;2022-09-24T06:41:03;100301.59;;;14.10;94.64
21273;BME280;36726;52.328;10.552;2022-09-24T06:43:31;100299.81;;;14.17;94.82
21273;BME280;36726;52.328;10.552;2022-09-24T06:45:58;100298.00;;;14.22;94.32
21273;BME280;36726;52.328;10.552;2022-09-24T06:48:26;100298.84;;;14.30;94.09
21273;BME280;36726;52.328;10.552;2022-09-24T06:50:53;100297.94;;;14.37;93.96
21273;BME280;36726;52.328;10.552;2022-09-24T06:53:21;100305.00;;;14.44;93.49
21273;BME280;36726;52.328;10.552;2022-09-24T06:55:48;100304.94;;;14.48;92.97
21273;BME280;36726;52.328;10.552;2022-09-24T06:58:19;100304.94;;;14.53;92.71
21273;BME280;36726;52.328;10.552;2022-09-24T07:00:56;100305.78;;;14.58;92.81
21273;BME280;36726;52.328;10.552;2022-09-24T07:03:26;100299.53;;;14.62;92.40
21273;BME280;36726;52.328;10.552;2022-09-24T07:05:53;100300.38;;;14.67;92.44
21273;BME280;36726;52.328;10.552;2022-09-24T07:08:20;100308.28;;;14.73;92.06
21273;BME280;36726;52.328;10.552;2022-09-24T07:10:47;100300.31;;;14.76;91.73
21273;BME280;36726;52.328;10.552;2022-09-24T07:13:15;100294.91;;;14.81;91.24
21273;BME280;36726;52.328;10.552;2022-09-24T07:15:42;100304.63;;;14.88;90.70
21273;BME280;36726;52.328;10.552;2022-09-24T07:18:10;100301.03;;;14.93;90.10
21273;BME280;36726;52.328;10.552;2022-09-24T07:20:38;100303.63;;;15.01;89.90
21273;BME280;36726;52.328;10.552;2022-09-24T07:23:06;100300.94;;;15.05;88.85
21273;BME280;36726;52.328;10.552;2022-09-24T07:25:33;100296.44;;;15.09;88.12
21273;BME280;36726;52.328;10.552;2022-09-24T07:28:05;100294.69;;;15.06;87.24
21273;BME280;36726;52.328;10.552;2022-09-24T07:30:33;100299.13;;;15.07;87.33
21273;BME280;36726;52.328;10.552;2022-09-24T07:33:00;100304.47;;;15.04;87.95
21273;BME280;36726;52.328;10.552;2022-09-24T07:35:27;100306.31;;;14.99;87.31
21273;BME280;36726;52.328;10.552;2022-09-24T07:38:02;100302.81;;;14.94;86.89
21273;BME280;36726;52.328;10.552;2022-09-24T07:40:29;100305.47;;;14.91;87.11
21273;BME280;36726;52.328;10.552;2022-09-24T07:42:56;100301.94;;;14.88;86.56
21273;BME280;36726;52.328;10.552;2022-09-24T07:45:25;100301.09;;;14.84;85.99
21273;BME280;36726;52.328;10.552;2022-09-24T07:47:56;100303.81;;;14.80;85.84
21273;BME280;36726;52.328;10.552;2022-09-24T07:50:24;100302.97;;;14.76;85.53
21273;BME280;36726;52.328;10.552;2022-09-24T07:52:50;100310.97;;;14.75;86.01
21273;BME280;36726;52.328;10.552;2022-09-24T07:55:17;100303.84;;;14.74;86.58
21273;BME280;36726;52.328;10.552;2022-09-24T07:57:49;100315.41;;;14.74;86.51
21273;BME280;36726;52.328;10.552;2022-09-24T08:00:18;100300.31;;;14.72;86.35
21273;BME280;36726;52.328;10.552;2022-09-24T08:02:46;100303.00;;;14.70;86.46
21273;BME280;36726;52.328;10.552;2022-09-24T08:05:14;100299.44;;;14.70;86.71
21273;BME280;36726;52.328;10.552;2022-09-24T08:07:53;100302.13;;;14.71;87.11
21273;BME280;36726;52.328;10.552;2022-09-24T08:10:21;100306.50;;;14.75;86.81
21273;BME280;36726;52.328;10.552;2022-09-24T08:12:48;100298.50;;;14.75;87.22
21273;BME280;36726;52.328;10.552;2022-09-24T08:15:15;100297.59;;;14.79;86.90
21273;BME280;36726;52.328;10.552;2022-09-24T08:17:42;100302.88;;;14.82;86.08
21273;BME280;36726;52.328;10.552;2022-09-24T08:20:09;100306.41;;;14.89;86.25
21273;BME280;36726;52.328;10.552;2022-09-24T08:22:35;100310.78;;;14.96;85.95
21273;BME280;36726;52.328;10.552;2022-09-24T08:25:02;100316.91;;;15.05;85.69
21273;BME280;36726;52.328;10.552;2022-09-24T08:27:29;100313.25;;;15.15;85.72
21273;BME280;36726;52.328;10.552;2022-09-24T08:29:58;100316.69;;;15.26;86.00
21273;BME280;36726;52.328;10.552;2022-09-24T08:32:26;100319.25;;;15.35;85.28
21273;BME280;36726;52.328;10.552;2022-09-24T08:34:54;100315.66;;;15.42;84.37
21273;BME280;36726;52.328;10.552;2022-09-24T08:37:21;100315.63;;;15.47;83.56
21273;BME280;36726;52.328;10.552;2022-09-24T08:39:47;100327.97;;;15.55;84.26
21273;BME280;36726;52.328;10.552;2022-09-24T08:42:27;100318.06;;;15.64;83.96
21273;BME280;36726;52.328;10.552;2022-09-24T08:44:57;100313.56;;;15.70;82.52
21273;BME280;36726;52.328;10.552;2022-09-24T08:47:47;100310.81;;;15.78;81.12
21273;BME280;36726;52.328;10.552;2022-09-24T08:50:23;100311.56;;;15.87;81.52
21273;BME280;36726;52.328;10.552;2022-09-24T08:53:11;100320.34;;;15.97;81.04
21273;BME280;36726;52.328;10.552;2022-09-24T08:55:44;100313.94;;;16.10;80.65
21273;BME280;36726;52.328;10.552;2022-09-24T08:58:24;100321.81;;;16.20;80.32
21273;BME280;36726;52.328;10.552;2022-09-24T09:06:25;100328.56;;;16.47;77.59
21273;BME280;36726;52.328;10.552;2022-09-24T09:11:49;100347.03;;;16.62;76.92
21273;BME280;36726;52.328;10.552;2022-09-24T09:14:20;100339.78;;;16.70;76.73
21273;BME280;36726;52.328;10.552;2022-09-24T09:16:57;100332.50;;;16.80;77.48
21273;BME280;36726;52.328;10.552;2022-09-24T09:19:29;100343.06;;;16.87;76.97
21273;BME280;36726;52.328;10.552;2022-09-24T09:22:08;100349.13;;;16.98;77.11
21273;BME280;36726;52.328;10.552;2022-09-24T09:24:50;100342.66;;;17.10;77.11
21273;BME280;36726;52.328;10.552;2022-09-24T09:27:19;100341.66;;;17.17;76.31
21273;BME280;36726;52.328;10.552;2022-09-24T09:29:49;100332.66;;;17.24;76.01
21273;BME280;36726;52.328;10.552;2022-09-24T09:32:32;100340.50;;;17.33;75.74
21273;BME280;36726;52.328;10.552;2022-09-24T09:35:28;100342.97;;;17.43;75.24
21273;BME280;36726;52.328;10.552;2022-09-24T09:38:05;100341.03;;;17.54;74.56
21273;BME280;36726;52.328;10.552;2022-09-24T09:40:43;100339.91;;;17.65;74.41
21273;BME280;36726;52.328;10.552;2022-09-24T09:43:12;100343.25;;;17.76;73.72
21273;BME280;36726;52.328;10.552;2022-09-24T09:48:23;100332.94;;;18.00;72.97
21273;BME280;36726;52.328;10.552;2022-09-24T09:50:55;100338.91;;;18.13;71.79
21273;BME280;36726;52.328;10.552;2022-09-24T09:53:26;100335.94;;;18.26;71.68
21273;BME280;36726;52.328;10.552;2022-09-24T09:55:58;100347.31;;;18.37;70.60
21273;BME280;36726;52.328;10.552;2022-09-24T09:58:28;100343.56;;;18.46;69.74
21273;BME280;36726;52.328;10.552;2022-09-24T10:01:29;100341.53;;;18.57;69.01
21273;BME280;36726;52.328;10.552;2022-09-24T10:03:57;100336.84;;;18.67;67.97
21273;BME280;36726;52.328;10.552;2022-09-24T10:06:32;100343.72;;;18.77;67.55
21273;BME280;36726;52.328;10.552;2022-09-24T10:09:07;100339.03;;;18.86;67.41
21273;BME280;36726;52.328;10.552;2022-09-24T10:11:37;100337.78;;;18.99;67.06
21273;BME280;36726;52.328;10.552;2022-09-24T10:14:04;100331.28;;;19.09;66.01
21273;BME280;36726;52.328;10.552;2022-09-24T10:16:46;100340.00;;;19.17;64.50
21273;BME280;36726;52.328;10.552;2022-09-24T10:19:21;100335.25;;;19.28;64.83
21273;BME280;36726;52.328;10.552;2022-09-24T10:21:50;100335.88;;;19.39;64.45
21273;BME280;36726;52.328;10.552;2022-09-24T10:24:20;100339.31;;;19.44;64.48
21273;BME280;36726;52.328;10.552;2022-09-24T10:26:48;100338.16;;;19.54;63.34
21273;BME280;36726;52.328;10.552;2022-09-24T10:29:26;100332.50;;;19.65;63.05
21273;BME280;36726;52.328;10.552;2022-09-24T10:32:22;100338.50;;;19.75;62.80
21273;BME280;36726;52.328;10.552;2022-09-24T10:34:56;100335.59;;;19.82;61.84
21273;BME280;36726;52.328;10.552;2022-09-24T10:37:24;100329.41;;;19.79;59.69
21273;BME280;36726;52.328;10.552;2022-09-24T10:42:36;100329.41;;;19.79;61.18
21273;BME280;36726;52.328;10.552;2022-09-24T10:45:09;100332.69;;;19.90;61.57
21273;BME280;36726;52.328;10.552;2022-09-24T10:47:56;100330.94;;;19.89;58.93
21273;BME280;36726;52.328;10.552;2022-09-24T10:53:02;100327.03;;;19.99;58.78
21273;BME280;36726;52.328;10.552;2022-09-24T10:55:41;100326.69;;;20.11;58.13
21273;BME280;36726;52.328;10.552;2022-09-24T10:58:25;100328.31;;;20.18;58.67
21273;BME280;36726;52.328;10.552;2022-09-24T11:01:07;100331.91;;;20.17;57.71
21273;BME280;36726;52.328;10.552;2022-09-24T11:03:58;100322.88;;;20.19;58.59
21273;BME280;36726;52.328;10.552;2022-09-24T11:06:43;100327.09;;;20.28;58.81
21273;BME280;36726;52.328;10.552;2022-09-24T11:20:33;100322.06;;;20.74;58.10
21273;BME280;36726;52.328;10.552;2022-09-24T11:25:58;100314.84;;;21.02;58.17
21273;BME280;36726;52.328;10.552;2022-09-24T11:31:30;100320.41;;;20.96;54.44
21273;BME280;36726;52.328;10.552;2022-09-24T11:34:33;100309.47;;;21.02;54.91
21273;BME280;36726;52.328;10.552;2022-09-24T11:37:19;100313.88;;;21.05;54.37
21273;BME280;36726;52.328;10.552;2022-09-24T11:39:52;100321.97;;;21.03;54.92
21273;BME280;36726;52.328;10.552;2022-09-24T11:42:24;100315.13;;;20.93;55.38
21273;BME280;36726;52.328;10.552;2022-09-24T11:48:00;100317.69;;;20.96;56.14
21273;BME280;36726;52.328;10.552;2022-09-24T11:53:45;100316.44;;;20.80;54.21
21273;BME280;36726;52.328;10.552;2022-09-24T11:56:41;100312.22;;;20.73;54.74
21273;BME280;36726;52.328;10.552;2022-09-24T11:59:32;100310.75;;;20.63;53.79
21273;BME280;36726;52.328;10.552;2022-09-24T12:02:09;100310.06;;;20.56;53.62
21273;BME280;36726;52.328;10.552;2022-09-24T12:07:22;100309.28;;;20.25;53.24
21273;BME280;36726;52.328;10.552;2022-09-24T12:10:04;100311.50;;;20.10;54.78
21273;BME280;36726;52.328;10.552;2022-09-24T12:12:40;100311.69;;;20.04;55.48
21273;BME280;36726;52.328;10.552;2022-09-24T12:15:18;100309.34;;;19.92;55.79
21273;BME280;36726;52.328;10.552;2022-09-24T12:17:51;100308.72;;;19.84;56.94
21273;BME280;36726;52.328;10.552;2022-09-24T12:20:25;100306.19;;;19.78;55.99
21273;BME280;36726;52.328;10.552;2022-09-24T12:22:58;100313.06;;;19.55;55.91
21273;BME280;36726;52.328;10.552;2022-09-24T12:25:31;100317.03;;;19.42;56.94
21273;BME280;36726;52.328;10.552;2022-09-24T12:28:00;100306.47;;;19.36;57.42
21273;BME280;36726;52.328;10.552;2022-09-24T12:30:40;100314.63;;;19.33;57.97
21273;BME280;36726;52.328;10.552;2022-09-24T12:33:38;100310.25;;;19.28;57.83
21273;BME280;36726;52.328;10.552;2022-09-24T12:36:14;100309.50;;;19.21;57.87
21273;BME280;36726;52.328;10.552;2022-09-24T12:39:06;100306.88;;;19.20;58.77
21273;BME280;36726;52.328;10.552;2022-09-24T12:41:37;100306.97;;;19.17;59.14
21273;BME280;36726;52.328;10.552;2022-09-24T12:44:13;100309.88;;;19.08;58.98
21273;BME280;36726;52.328;10.552;2022-09-24T12:46:51;100311.91;;;18.98;59.07
21273;BME280;36726;52.328;10.552;2022-09-24T12:51:54;100308.72;;;18.84;60.03
21273;BME280;36726;52.328;10.552;2022-09-24T12:54:33;100308.94;;;18.75;60.03
21273;BME280;36726;52.328;10.552;2022-09-24T12:57:16;100311.00;;;18.64;60.64
21273;BME280;36726;52.328;10.552;2022-09-24T12:59:57;100309.53;;;18.49;60.82
21273;BME280;36726;52.328;10.552;2022-09-24T13:02:27;100302.63;;;18.41;61.67
21273;BME280;36726;52.328;10.552;2022-09-24T13:07:39;100301.19;;;18.23;62.63
21273;BME280;36726;52.328;10.552;2022-09-24T13:12:42;100296.91;;;18.15;63.23
21273;BME280;36726;52.328;10.552;2022-09-24T13:15:32;100297.03;;;18.10;63.76
21273;BME280;36726;52.328;10.552;2022-09-24T13:20:40;100302.47;;;18.06;64.67
21273;BME280;36726;52.328;10.552;2022-09-24T13:25:58;100304.47;;;17.98;64.72
21273;BME280;36726;52.328;10.552;2022-09-24T13:28:59;100305.50;;;17.91;65.00
21273;BME280;36726;52.328;10.552;2022-09-24T13:34:03;100298.47;;;17.85;65.34
21273;BME280;36726;52.328;10.552;2022-09-24T13:36:44;100305.66;;;17.83;65.90
21273;BME280;36726;52.328;10.552;2022-09-24T13:39:44;100302.16;;;17.80;66.24
21273;BME280;36726;52.328;10.552;2022-09-24T13:42:17;100304.03;;;17.75;66.51
21273;BME280;36726;52.328;10.552;2022-09-24T13:44:52;100299.72;;;17.69;67.19
21273;BME280;36726;52.328;10.552;2022-09-24T13:47:32;100302.56;;;17.60;66.97
21273;BME280;36726;52.328;10.552;2022-09-24T13:50:12;100303.66;;;17.50;66.74
21273;BME280;36726;52.328;10.552;2022-09-24T13:52:50;100294.06;;;17.38;66.71
21273;BME280;36726;52.328;10.552;2022-09-24T13:55:28;100296.91;;;17.29;67.11
21273;BME280;36726;52.328;10.552;2022-09-24T13:57:56;100303.25;;;17.22;67.00
21273;BME280;36726;52.328;10.552;2022-09-24T14:00:25;100310.47;;;17.17;67.86
21273;BME280;36726;52.328;10.552;2022-09-24T14:03:12;100308.75;;;17.13;67.81
21273;BME280;36726;52.328;10.552;2022-09-24T14:05:42;100306.19;;;17.09;68.16
21273;BME280;36726;52.328;10.552;2022-09-24T14:08:13;100295.56;;;17.06;68.38
21273;BME280;36726;52.328;10.552;2022-09-24T14:10:41;100311.63;;;17.03;69.12